Station Historical Data
 
Daily Summary for October 22, 2017 Units:  English    Metric   Both
« Previous Day
Next Day »
Daily Weekly Monthly Yearly Custom
  Current: High: Low: Average:
Temperature: 45.2 °F 51.0 °F 44.5 °F 46.7 °F
Dew Point: 43.9 °F 46.7 °F 43.1 °F 44.6 °F
Humidity: 95% 95% 85% 92%
Wind Speed: 2.0mph 2.9mph 0.0mph 0.7mph
Wind Gust: 25.3mph 25.3mph - -
WindWest - - West
Pressure: 30.35 in 30.35 in 30.33 in -
Precipitation: 0.00 in      
Historical Graphs
 
 
Tabular Data for October 22, 2017
Time Temperature Dew Point Pressure Wind Wind Speed Wind Gust Humidity Rainfall Rate (Hourly) solar Conditions
00:01 51.0 °F 46.6 °F 30.34 in West 1.0 mph 25.3 mph 85% 0.00 in WeatherDisplay:10.37 W/m2 CLR
00:06 50.7 °F 46.7 °F 30.34 in West 1.8 mph 25.3 mph 86% 0.00 in WeatherDisplay:10.37 W/m2 CLR
00:11 50.4 °F 46.4 °F 30.34 in West 0.6 mph 25.3 mph 86% 0.00 in WeatherDisplay:10.37 W/m2 CLR
00:16 50.2 °F 46.2 °F 30.34 in Calm   25.3 mph 86% 0.00 in WeatherDisplay:10.37 W/m2 CLR
00:21 50.0 °F 46.3 °F 30.34 in West 1.0 mph 25.3 mph 87% 0.00 in WeatherDisplay:10.37 W/m2 CLR
00:26 49.7 °F 46.0 °F 30.34 in West 0.5 mph 25.3 mph 87% 0.00 in WeatherDisplay:10.37 W/m2 CLR
00:31 49.5 °F 45.8 °F 30.34 in West 1.7 mph 25.3 mph 87% 0.00 in WeatherDisplay:10.37 W/m2 CLR
00:36 49.2 °F 45.8 °F 30.34 in West 0.3 mph 25.3 mph 88% 0.00 in WeatherDisplay:10.37 W/m2 CLR
00:41 49.0 °F 45.6 °F 30.34 in West 1.4 mph 25.3 mph 88% 0.00 in WeatherDisplay:10.37 W/m2 CLR
00:46 48.8 °F 45.7 °F 30.34 in West 1.3 mph 25.3 mph 89% 0.00 in WeatherDisplay:10.37 W/m2 CLR
00:51 48.7 °F 45.6 °F 30.34 in West 0.7 mph 25.3 mph 89% 0.00 in WeatherDisplay:10.37 W/m2 CLR
00:56 48.5 °F 45.4 °F 30.34 in West 1.2 mph 25.3 mph 89% 0.00 in WeatherDisplay:10.37 W/m2 CLR
01:01 48.3 °F 45.5 °F 30.34 in Calm   25.3 mph 90% 0.00 in WeatherDisplay:10.37 W/m2 CLR
01:06 48.2 °F 45.4 °F 30.34 in Calm   25.3 mph 90% 0.00 in WeatherDisplay:10.37 W/m2 CLR
01:11 48.0 °F 45.5 °F 30.33 in Calm   25.3 mph 91% 0.00 in WeatherDisplay:10.37 W/m2 CLR
01:16 47.9 °F 45.4 °F 30.33 in Calm   25.3 mph 91% 0.00 in WeatherDisplay:10.37 W/m2 CLR
01:21 47.7 °F 45.2 °F 30.33 in Calm   25.3 mph 91% 0.00 in WeatherDisplay:10.37 W/m2 CLR
01:26 47.6 °F 45.1 °F 30.33 in Calm   25.3 mph 91% 0.00 in WeatherDisplay:10.37 W/m2 CLR
01:31 47.5 °F 45.0 °F 30.33 in Calm   25.3 mph 91% 0.00 in WeatherDisplay:10.37 W/m2 CLR
01:36 47.3 °F 44.8 °F 30.33 in Calm   25.3 mph 91% 0.00 in WeatherDisplay:10.37 W/m2 CLR
01:41 47.3 °F 45.1 °F 30.33 in Calm   25.3 mph 92% 0.00 in WeatherDisplay:10.37 W/m2 CLR
01:46 47.3 °F 45.4 °F 30.33 in West 1.5 mph 25.3 mph 93% 0.00 in WeatherDisplay:10.37 W/m2 CLR
01:51 47.3 °F 45.4 °F 30.33 in West 1.1 mph 25.3 mph 93% 0.00 in WeatherDisplay:10.37 W/m2 CLR
01:56 47.3 °F 45.4 °F 30.33 in Calm   25.3 mph 93% 0.00 in WeatherDisplay:10.37 W/m2 CLR
02:01 47.2 °F 45.0 °F 30.33 in West 1.5 mph 25.3 mph 92% 0.00 in WeatherDisplay:10.37 W/m2 CLR
02:06 47.0 °F 44.8 °F 30.33 in Calm   25.3 mph 92% 0.00 in WeatherDisplay:10.37 W/m2 CLR
02:11 46.8 °F 44.6 °F 30.33 in Calm   25.3 mph 92% 0.00 in WeatherDisplay:10.37 W/m2 CLR
02:16 46.7 °F 44.8 °F 30.33 in West 0.6 mph 25.3 mph 93% 0.00 in WeatherDisplay:10.37 W/m2 CLR
02:21 46.6 °F 44.7 °F 30.33 in Calm   25.3 mph 93% 0.00 in WeatherDisplay:10.37 W/m2 CLR
02:26 46.6 °F 44.7 °F 30.33 in West 1.0 mph 25.3 mph 93% 0.00 in WeatherDisplay:10.37 W/m2 CLR
02:31 46.5 °F 44.6 °F 30.33 in West 1.1 mph 25.3 mph 93% 0.00 in WeatherDisplay:10.37 W/m2 CLR
02:36 46.4 °F 44.5 °F 30.33 in West 1.0 mph 25.3 mph 93% 0.00 in WeatherDisplay:10.37 W/m2 CLR
02:41 46.3 °F 44.4 °F 30.33 in West 1.2 mph 25.3 mph 93% 0.00 in WeatherDisplay:10.37 W/m2 CLR
02:46 46.2 °F 44.3 °F 30.33 in West 1.5 mph 25.3 mph 93% 0.00 in WeatherDisplay:10.37 W/m2 CLR
02:51 46.2 °F 44.6 °F 30.34 in West 1.7 mph 25.3 mph 94% 0.00 in WeatherDisplay:10.37 W/m2 CLR
02:56 46.2 °F 44.6 °F 30.34 in West 1.2 mph 25.3 mph 94% 0.00 in WeatherDisplay:10.37 W/m2 CLR
03:01 46.2 °F 44.6 °F 30.34 in West 1.6 mph 25.3 mph 94% 0.00 in WeatherDisplay:10.37 W/m2 CLR
03:06 46.1 °F 44.5 °F 30.34 in West 1.2 mph 25.3 mph 94% 0.00 in WeatherDisplay:10.37 W/m2 CLR
03:11 46.2 °F 44.6 °F 30.34 in West 1.9 mph 25.3 mph 94% 0.00 in WeatherDisplay:10.37 W/m2 CLR
03:16 46.2 °F 44.6 °F 30.34 in West 1.0 mph 25.3 mph 94% 0.00 in WeatherDisplay:10.37 W/m2 CLR
03:21 46.2 °F 44.6 °F 30.34 in West 0.9 mph 25.3 mph 94% 0.00 in WeatherDisplay:10.37 W/m2 CLR
03:26 46.1 °F 44.5 °F 30.33 in West 0.7 mph 25.3 mph 94% 0.00 in WeatherDisplay:10.37 W/m2 CLR
03:31 46.0 °F 44.4 °F 30.33 in West 1.4 mph 25.3 mph 94% 0.00 in WeatherDisplay:10.37 W/m2 CLR
03:36 46.0 °F 44.4 °F 30.33 in West 0.5 mph 25.3 mph 94% 0.00 in WeatherDisplay:10.37 W/m2 CLR
03:41 45.9 °F 44.3 °F 30.33 in West 1.1 mph 25.3 mph 94% 0.00 in WeatherDisplay:10.37 W/m2 CLR
03:46 45.8 °F 44.2 °F 30.33 in Calm   25.3 mph 94% 0.00 in WeatherDisplay:10.37 W/m2 CLR
03:51 45.7 °F 44.1 °F 30.33 in Calm   25.3 mph 94% 0.00 in WeatherDisplay:10.37 W/m2 CLR
03:56 45.6 °F 44.0 °F 30.33 in Calm   25.3 mph 94% 0.00 in WeatherDisplay:10.37 W/m2 CLR
04:01 45.5 °F 43.9 °F 30.33 in Calm   25.3 mph 94% 0.00 in WeatherDisplay:10.37 W/m2 CLR
04:06 45.5 °F 43.9 °F 30.33 in Calm   25.3 mph 94% 0.00 in WeatherDisplay:10.37 W/m2 CLR
04:11 45.3 °F 43.7 °F 30.33 in Calm   25.3 mph 94% 0.00 in WeatherDisplay:10.37 W/m2 CLR
04:16 45.1 °F 43.5 °F 30.33 in Calm   25.3 mph 94% 0.00 in WeatherDisplay:10.37 W/m2 CLR
04:21 45.0 °F 43.4 °F 30.33 in Calm   25.3 mph 94% 0.00 in WeatherDisplay:10.37 W/m2 CLR
04:26 45.0 °F 43.4 °F 30.34 in Calm   25.3 mph 94% 0.00 in WeatherDisplay:10.37 W/m2 CLR
04:31 45.0 °F 43.7 °F 30.33 in Calm   25.3 mph 95% 0.00 in WeatherDisplay:10.37 W/m2 CLR
04:36 45.0 °F 43.7 °F 30.34 in Calm   25.3 mph 95% 0.00 in WeatherDisplay:10.37 W/m2 CLR
04:41 45.0 °F 43.7 °F 30.34 in Calm   25.3 mph 95% 0.00 in WeatherDisplay:10.37 W/m2 CLR
04:46 44.7 °F 43.1 °F 30.34 in Calm   25.3 mph 94% 0.00 in WeatherDisplay:10.37 W/m2 CLR
04:51 44.6 °F 43.3 °F 30.34 in West 0.5 mph 25.3 mph 95% 0.00 in WeatherDisplay:10.37 W/m2 CLR
04:56 44.6 °F 43.3 °F 30.34 in West 0.6 mph 25.3 mph 95% 0.00 in WeatherDisplay:10.37 W/m2 CLR
05:01 44.5 °F 43.2 °F 30.34 in West 0.2 mph 25.3 mph 95% 0.00 in WeatherDisplay:10.37 W/m2 CLR
05:06 44.5 °F 43.2 °F 30.34 in West 1.2 mph 25.3 mph 95% 0.00 in WeatherDisplay:10.37 W/m2 CLR
05:11 44.5 °F 43.2 °F 30.34 in West 1.9 mph 25.3 mph 95% 0.00 in WeatherDisplay:10.37 W/m2 CLR
05:21 44.9 °F 43.6 °F 30.35 in West 2.2 mph 25.3 mph 95% 0.00 in WeatherDisplay:10.37 W/m2 CLR
05:26 45.1 °F 43.8 °F 30.35 in West 2.9 mph 25.3 mph 95% 0.00 in WeatherDisplay:10.37 W/m2 CLR
05:31 45.2 °F 43.9 °F 30.35 in West 1.0 mph 25.3 mph 95% 0.00 in WeatherDisplay:10.37 W/m2 CLR
05:36 45.2 °F 43.9 °F 30.35 in West 2.3 mph 25.3 mph 95% 0.00 in WeatherDisplay:10.37 W/m2 CLR
05:41 45.2 °F 43.9 °F 30.35 in West 1.5 mph 25.3 mph 95% 0.00 in WeatherDisplay:10.37 W/m2 CLR
05:46 45.2 °F 43.9 °F 30.35 in West 2.0 mph 25.3 mph 95% 0.00 in WeatherDisplay:10.37 W/m2 CLR
East Vincent, PA, USA
Compliments of Weather Underground - 2.5 mb